sensor_id;sensor_type;location;lat;lon;timestamp;P1;durP1;ratioP1;P2;durP2;ratioP2
19869;SDS011;10097;50.862;4.696;2023-03-01T00:01:27;18.80;;;8.30;;
19869;SDS011;10097;50.862;4.696;2023-03-01T00:03:54;17.80;;;8.57;;
19869;SDS011;10097;50.862;4.696;2023-03-01T00:06:21;21.67;;;9.77;;
19869;SDS011;10097;50.862;4.696;2023-03-01T00:08:49;27.43;;;10.47;;
19869;SDS011;10097;50.862;4.696;2023-03-01T00:11:16;23.67;;;10.37;;
19869;SDS011;10097;50.862;4.696;2023-03-01T00:13:51;17.63;;;9.40;;
19869;SDS011;10097;50.862;4.696;2023-03-01T00:16:20;22.77;;;10.57;;
19869;SDS011;10097;50.862;4.696;2023-03-01T00:18:48;22.50;;;10.10;;
19869;SDS011;10097;50.862;4.696;2023-03-01T00:21:14;21.80;;;10.30;;
19869;SDS011;10097;50.862;4.696;2023-03-01T00:23:41;20.13;;;9.93;;
19869;SDS011;10097;50.862;4.696;2023-03-01T00:26:09;24.40;;;10.37;;
19869;SDS011;10097;50.862;4.696;2023-03-01T00:28:37;19.40;;;10.10;;
19869;SDS011;10097;50.862;4.696;2023-03-01T00:31:06;18.90;;;9.23;;
19869;SDS011;10097;50.862;4.696;2023-03-01T00:33:36;21.03;;;9.03;;
19869;SDS011;10097;50.862;4.696;2023-03-01T00:36:02;16.40;;;8.67;;
19869;SDS011;10097;50.862;4.696;2023-03-01T00:38:28;18.30;;;9.10;;
19869;SDS011;10097;50.862;4.696;2023-03-01T00:40:54;18.57;;;9.20;;
19869;SDS011;10097;50.862;4.696;2023-03-01T00:43:20;19.77;;;9.83;;
19869;SDS011;10097;50.862;4.696;2023-03-01T00:45:46;19.07;;;10.10;;
19869;SDS011;10097;50.862;4.696;2023-03-01T00:48:12;17.67;;;8.57;;
19869;SDS011;10097;50.862;4.696;2023-03-01T00:50:38;17.53;;;8.97;;
19869;SDS011;10097;50.862;4.696;2023-03-01T00:53:04;15.37;;;8.17;;
19869;SDS011;10097;50.862;4.696;2023-03-01T00:55:30;16.63;;;9.27;;
19869;SDS011;10097;50.862;4.696;2023-03-01T00:57:57;18.07;;;9.03;;
19869;SDS011;10097;50.862;4.696;2023-03-01T01:00:22;17.20;;;9.10;;
19869;SDS011;10097;50.862;4.696;2023-03-01T01:02:48;19.20;;;8.97;;
19869;SDS011;10097;50.862;4.696;2023-03-01T01:05:14;16.40;;;8.80;;
19869;SDS011;10097;50.862;4.696;2023-03-01T01:07:40;17.70;;;8.90;;
19869;SDS011;10097;50.862;4.696;2023-03-01T01:10:06;18.87;;;9.47;;
19869;SDS011;10097;50.862;4.696;2023-03-01T01:12:32;21.23;;;8.83;;
19869;SDS011;10097;50.862;4.696;2023-03-01T01:14:58;22.03;;;9.67;;
19869;SDS011;10097;50.862;4.696;2023-03-01T01:17:24;25.63;;;11.50;;
19869;SDS011;10097;50.862;4.696;2023-03-01T01:19:49;22.33;;;9.20;;
19869;SDS011;10097;50.862;4.696;2023-03-01T01:22:15;18.93;;;8.70;;
19869;SDS011;10097;50.862;4.696;2023-03-01T01:24:41;23.93;;;10.73;;
19869;SDS011;10097;50.862;4.696;2023-03-01T01:27:07;24.07;;;10.20;;
19869;SDS011;10097;50.862;4.696;2023-03-01T01:29:32;20.93;;;9.47;;
19869;SDS011;10097;50.862;4.696;2023-03-01T01:31:58;21.97;;;9.70;;
19869;SDS011;10097;50.862;4.696;2023-03-01T01:34:24;24.87;;;9.90;;
19869;SDS011;10097;50.862;4.696;2023-03-01T01:36:50;22.47;;;8.90;;
19869;SDS011;10097;50.862;4.696;2023-03-01T01:39:20;18.63;;;9.70;;
19869;SDS011;10097;50.862;4.696;2023-03-01T01:41:47;20.57;;;9.27;;
19869;SDS011;10097;50.862;4.696;2023-03-01T01:44:17;20.13;;;9.80;;
19869;SDS011;10097;50.862;4.696;2023-03-01T01:49:19;21.17;;;9.47;;
19869;SDS011;10097;50.862;4.696;2023-03-01T01:51:56;20.57;;;9.67;;
19869;SDS011;10097;50.862;4.696;2023-03-01T01:54:38;19.67;;;9.03;;
19869;SDS011;10097;50.862;4.696;2023-03-01T01:57:06;18.17;;;10.00;;
19869;SDS011;10097;50.862;4.696;2023-03-01T01:59:35;24.87;;;9.47;;
19869;SDS011;10097;50.862;4.696;2023-03-01T02:02:02;21.70;;;9.50;;
19869;SDS011;10097;50.862;4.696;2023-03-01T02:04:29;20.77;;;9.63;;
19869;SDS011;10097;50.862;4.696;2023-03-01T02:06:58;23.20;;;9.87;;
19869;SDS011;10097;50.862;4.696;2023-03-01T02:09:25;23.37;;;9.93;;
19869;SDS011;10097;50.862;4.696;2023-03-01T02:11:52;27.97;;;11.10;;
19869;SDS011;10097;50.862;4.696;2023-03-01T02:14:19;20.43;;;9.40;;
19869;SDS011;10097;50.862;4.696;2023-03-01T02:16:44;21.73;;;9.70;;
19869;SDS011;10097;50.862;4.696;2023-03-01T02:19:13;21.73;;;9.70;;
19869;SDS011;10097;50.862;4.696;2023-03-01T02:22:10;23.33;;;10.20;;
19869;SDS011;10097;50.862;4.696;2023-03-01T02:24:58;20.60;;;8.93;;
19869;SDS011;10097;50.862;4.696;2023-03-01T02:27:36;19.67;;;9.10;;
19869;SDS011;10097;50.862;4.696;2023-03-01T02:30:10;18.00;;;8.60;;
19869;SDS011;10097;50.862;4.696;2023-03-01T02:32:38;18.50;;;9.03;;
19869;SDS011;10097;50.862;4.696;2023-03-01T02:35:07;23.33;;;10.67;;
19869;SDS011;10097;50.862;4.696;2023-03-01T02:37:35;22.27;;;9.67;;
19869;SDS011;10097;50.862;4.696;2023-03-01T02:40:02;20.03;;;9.20;;
19869;SDS011;10097;50.862;4.696;2023-03-01T02:42:36;22.17;;;9.90;;
19869;SDS011;10097;50.862;4.696;2023-03-01T02:45:10;17.87;;;8.80;;
19869;SDS011;10097;50.862;4.696;2023-03-01T02:47:36;16.93;;;9.13;;
19869;SDS011;10097;50.862;4.696;2023-03-01T02:50:02;19.47;;;9.53;;
19869;SDS011;10097;50.862;4.696;2023-03-01T02:52:39;20.10;;;10.03;;
19869;SDS011;10097;50.862;4.696;2023-03-01T02:55:17;20.73;;;9.57;;
19869;SDS011;10097;50.862;4.696;2023-03-01T02:57:44;20.97;;;9.73;;
19869;SDS011;10097;50.862;4.696;2023-03-01T03:00:17;18.70;;;8.77;;
19869;SDS011;10097;50.862;4.696;2023-03-01T03:02:49;18.73;;;8.70;;
19869;SDS011;10097;50.862;4.696;2023-03-01T03:05:22;17.63;;;9.00;;
19869;SDS011;10097;50.862;4.696;2023-03-01T03:07:50;18.73;;;9.50;;
19869;SDS011;10097;50.862;4.696;2023-03-01T03:10:23;19.93;;;9.13;;
19869;SDS011;10097;50.862;4.696;2023-03-01T03:12:57;21.00;;;9.60;;
19869;SDS011;10097;50.862;4.696;2023-03-01T03:15:24;19.53;;;8.83;;
19869;SDS011;10097;50.862;4.696;2023-03-01T03:17:52;21.60;;;9.67;;
19869;SDS011;10097;50.862;4.696;2023-03-01T03:20:19;18.87;;;9.37;;
19869;SDS011;10097;50.862;4.696;2023-03-01T03:22:47;19.33;;;8.77;;
19869;SDS011;10097;50.862;4.696;2023-03-01T03:25:14;16.43;;;8.70;;
19869;SDS011;10097;50.862;4.696;2023-03-01T03:27:41;18.30;;;9.30;;
19869;SDS011;10097;50.862;4.696;2023-03-01T03:30:10;17.83;;;9.07;;
19869;SDS011;10097;50.862;4.696;2023-03-01T03:32:42;21.87;;;9.43;;
19869;SDS011;10097;50.862;4.696;2023-03-01T03:35:25;23.40;;;9.10;;
19869;SDS011;10097;50.862;4.696;2023-03-01T03:37:55;16.80;;;8.90;;
19869;SDS011;10097;50.862;4.696;2023-03-01T03:40:36;17.90;;;9.00;;
19869;SDS011;10097;50.862;4.696;2023-03-01T03:43:04;23.87;;;8.73;;
19869;SDS011;10097;50.862;4.696;2023-03-01T03:45:35;21.33;;;9.10;;
19869;SDS011;10097;50.862;4.696;2023-03-01T03:48:02;22.27;;;9.07;;
19869;SDS011;10097;50.862;4.696;2023-03-01T03:50:31;17.70;;;8.70;;
19869;SDS011;10097;50.862;4.696;2023-03-01T03:52:57;19.40;;;9.53;;
19869;SDS011;10097;50.862;4.696;2023-03-01T03:55:22;17.80;;;8.80;;
19869;SDS011;10097;50.862;4.696;2023-03-01T03:57:52;17.53;;;8.60;;
19869;SDS011;10097;50.862;4.696;2023-03-01T04:00:19;18.23;;;8.97;;
19869;SDS011;10097;50.862;4.696;2023-03-01T04:02:47;18.93;;;9.07;;
19869;SDS011;10097;50.862;4.696;2023-03-01T04:05:14;21.53;;;8.47;;
19869;SDS011;10097;50.862;4.696;2023-03-01T04:07:41;20.43;;;8.90;;
19869;SDS011;10097;50.862;4.696;2023-03-01T04:10:09;19.57;;;8.47;;
19869;SDS011;10097;50.862;4.696;2023-03-01T04:12:42;20.00;;;8.97;;
19869;SDS011;10097;50.862;4.696;2023-03-01T04:15:09;19.43;;;8.40;;
19869;SDS011;10097;50.862;4.696;2023-03-01T04:17:39;19.47;;;11.37;;
19869;SDS011;10097;50.862;4.696;2023-03-01T04:20:09;17.77;;;8.60;;
19869;SDS011;10097;50.862;4.696;2023-03-01T04:22:36;19.87;;;9.33;;
19869;SDS011;10097;50.862;4.696;2023-03-01T04:25:02;23.20;;;9.80;;
19869;SDS011;10097;50.862;4.696;2023-03-01T04:27:29;22.23;;;10.03;;
19869;SDS011;10097;50.862;4.696;2023-03-01T04:29:55;20.37;;;9.10;;
19869;SDS011;10097;50.862;4.696;2023-03-01T04:32:21;26.77;;;9.33;;
19869;SDS011;10097;50.862;4.696;2023-03-01T04:34:46;19.27;;;8.77;;
19869;SDS011;10097;50.862;4.696;2023-03-01T04:37:12;22.73;;;9.03;;
19869;SDS011;10097;50.862;4.696;2023-03-01T04:39:38;24.33;;;9.90;;
19869;SDS011;10097;50.862;4.696;2023-03-01T04:42:10;23.67;;;10.17;;
19869;SDS011;10097;50.862;4.696;2023-03-01T04:44:37;19.40;;;9.00;;
19869;SDS011;10097;50.862;4.696;2023-03-01T04:47:02;21.73;;;9.23;;
19869;SDS011;10097;50.862;4.696;2023-03-01T04:49:28;19.40;;;8.80;;
19869;SDS011;10097;50.862;4.696;2023-03-01T04:51:54;19.20;;;8.47;;
19869;SDS011;10097;50.862;4.696;2023-03-01T04:54:20;18.27;;;8.77;;
19869;SDS011;10097;50.862;4.696;2023-03-01T04:56:45;20.33;;;9.17;;
19869;SDS011;10097;50.862;4.696;2023-03-01T04:59:11;19.83;;;9.47;;
19869;SDS011;10097;50.862;4.696;2023-03-01T05:01:38;20.37;;;8.93;;
19869;SDS011;10097;50.862;4.696;2023-03-01T05:04:04;19.53;;;8.23;;
19869;SDS011;10097;50.862;4.696;2023-03-01T05:06:30;18.70;;;8.77;;
19869;SDS011;10097;50.862;4.696;2023-03-01T05:08:56;18.83;;;9.30;;
19869;SDS011;10097;50.862;4.696;2023-03-01T05:11:22;21.33;;;9.03;;
19869;SDS011;10097;50.862;4.696;2023-03-01T05:13:47;18.07;;;8.63;;
19869;SDS011;10097;50.862;4.696;2023-03-01T05:16:14;19.73;;;8.20;;
19869;SDS011;10097;50.862;4.696;2023-03-01T05:18:41;19.07;;;8.40;;
19869;SDS011;10097;50.862;4.696;2023-03-01T05:21:09;20.97;;;8.47;;
19869;SDS011;10097;50.862;4.696;2023-03-01T05:23:36;18.20;;;8.77;;
19869;SDS011;10097;50.862;4.696;2023-03-01T05:26:03;19.30;;;9.13;;
19869;SDS011;10097;50.862;4.696;2023-03-01T05:28:31;18.00;;;8.67;;
19869;SDS011;10097;50.862;4.696;2023-03-01T05:30:57;18.03;;;9.00;;
19869;SDS011;10097;50.862;4.696;2023-03-01T05:33:23;16.57;;;8.97;;
19869;SDS011;10097;50.862;4.696;2023-03-01T05:35:50;17.80;;;8.40;;
19869;SDS011;10097;50.862;4.696;2023-03-01T05:38:16;18.67;;;8.43;;
19869;SDS011;10097;50.862;4.696;2023-03-01T05:40:46;19.17;;;9.33;;
19869;SDS011;10097;50.862;4.696;2023-03-01T05:43:13;20.10;;;9.27;;
19869;SDS011;10097;50.862;4.696;2023-03-01T05:45:39;18.30;;;8.97;;
19869;SDS011;10097;50.862;4.696;2023-03-01T05:48:06;17.27;;;8.47;;
19869;SDS011;10097;50.862;4.696;2023-03-01T05:50:34;18.50;;;9.07;;
19869;SDS011;10097;50.862;4.696;2023-03-01T05:53:06;16.73;;;8.83;;
19869;SDS011;10097;50.862;4.696;2023-03-01T05:55:35;19.13;;;8.87;;
19869;SDS011;10097;50.862;4.696;2023-03-01T05:58:03;22.77;;;9.10;;
19869;SDS011;10097;50.862;4.696;2023-03-01T06:00:31;20.23;;;9.07;;
19869;SDS011;10097;50.862;4.696;2023-03-01T06:02:58;18.57;;;9.13;;
19869;SDS011;10097;50.862;4.696;2023-03-01T06:05:25;24.27;;;9.13;;
19869;SDS011;10097;50.862;4.696;2023-03-01T06:07:51;18.63;;;8.90;;
19869;SDS011;10097;50.862;4.696;2023-03-01T06:10:18;18.17;;;8.50;;
19869;SDS011;10097;50.862;4.696;2023-03-01T06:12:44;21.87;;;9.87;;
19869;SDS011;10097;50.862;4.696;2023-03-01T06:15:11;19.77;;;9.20;;
19869;SDS011;10097;50.862;4.696;2023-03-01T06:17:39;19.80;;;9.03;;
19869;SDS011;10097;50.862;4.696;2023-03-01T06:20:07;18.83;;;9.83;;
19869;SDS011;10097;50.862;4.696;2023-03-01T06:22:36;18.63;;;9.10;;
19869;SDS011;10097;50.862;4.696;2023-03-01T06:25:03;16.60;;;8.37;;
19869;SDS011;10097;50.862;4.696;2023-03-01T06:27:30;18.53;;;8.63;;
19869;SDS011;10097;50.862;4.696;2023-03-01T06:29:55;19.97;;;8.03;;
19869;SDS011;10097;50.862;4.696;2023-03-01T06:32:21;20.23;;;9.70;;
19869;SDS011;10097;50.862;4.696;2023-03-01T06:34:47;15.93;;;7.87;;
19869;SDS011;10097;50.862;4.696;2023-03-01T06:37:12;19.53;;;9.43;;
19869;SDS011;10097;50.862;4.696;2023-03-01T06:39:38;18.33;;;9.43;;
19869;SDS011;10097;50.862;4.696;2023-03-01T06:42:04;19.17;;;8.67;;
19869;SDS011;10097;50.862;4.696;2023-03-01T06:44:30;16.43;;;8.17;;
19869;SDS011;10097;50.862;4.696;2023-03-01T06:46:56;17.73;;;8.40;;
19869;SDS011;10097;50.862;4.696;2023-03-01T06:49:21;21.90;;;9.30;;
19869;SDS011;10097;50.862;4.696;2023-03-01T06:51:47;18.80;;;9.27;;
19869;SDS011;10097;50.862;4.696;2023-03-01T06:54:13;22.47;;;9.70;;
19869;SDS011;10097;50.862;4.696;2023-03-01T06:56:39;18.60;;;9.70;;
19869;SDS011;10097;50.862;4.696;2023-03-01T06:59:04;18.87;;;9.13;;
19869;SDS011;10097;50.862;4.696;2023-03-01T07:01:30;18.53;;;9.30;;
19869;SDS011;10097;50.862;4.696;2023-03-01T07:03:56;20.67;;;8.97;;
19869;SDS011;10097;50.862;4.696;2023-03-01T07:06:22;22.23;;;9.70;;
19869;SDS011;10097;50.862;4.696;2023-03-01T07:08:48;18.13;;;9.30;;
19869;SDS011;10097;50.862;4.696;2023-03-01T07:11:14;23.00;;;9.27;;
19869;SDS011;10097;50.862;4.696;2023-03-01T07:13:40;19.43;;;8.93;;
19869;SDS011;10097;50.862;4.696;2023-03-01T07:16:06;20.30;;;9.23;;
19869;SDS011;10097;50.862;4.696;2023-03-01T07:18:32;21.33;;;10.00;;
19869;SDS011;10097;50.862;4.696;2023-03-01T07:20:57;18.13;;;8.90;;
19869;SDS011;10097;50.862;4.696;2023-03-01T07:23:23;18.63;;;9.40;;
19869;SDS011;10097;50.862;4.696;2023-03-01T07:25:52;18.87;;;9.10;;
19869;SDS011;10097;50.862;4.696;2023-03-01T07:28:24;20.73;;;9.63;;
19869;SDS011;10097;50.862;4.696;2023-03-01T07:30:50;21.33;;;8.80;;
19869;SDS011;10097;50.862;4.696;2023-03-01T07:33:16;19.20;;;8.70;;
19869;SDS011;10097;50.862;4.696;2023-03-01T07:35:42;19.07;;;9.00;;
19869;SDS011;10097;50.862;4.696;2023-03-01T07:38:07;17.90;;;8.90;;
19869;SDS011;10097;50.862;4.696;2023-03-01T07:40:33;22.50;;;9.70;;
19869;SDS011;10097;50.862;4.696;2023-03-01T07:43:00;18.63;;;9.13;;
19869;SDS011;10097;50.862;4.696;2023-03-01T07:45:26;17.50;;;8.40;;
19869;SDS011;10097;50.862;4.696;2023-03-01T07:47:53;18.07;;;8.33;;
19869;SDS011;10097;50.862;4.696;2023-03-01T07:50:20;18.33;;;9.03;;
19869;SDS011;10097;50.862;4.696;2023-03-01T07:52:46;20.27;;;8.43;;
19869;SDS011;10097;50.862;4.696;2023-03-01T07:55:13;20.57;;;9.43;;
19869;SDS011;10097;50.862;4.696;2023-03-01T07:57:39;19.27;;;8.93;;
19869;SDS011;10097;50.862;4.696;2023-03-01T08:00:05;18.50;;;8.27;;
19869;SDS011;10097;50.862;4.696;2023-03-01T08:02:32;18.20;;;9.07;;
19869;SDS011;10097;50.862;4.696;2023-03-01T08:04:58;18.97;;;9.10;;
19869;SDS011;10097;50.862;4.696;2023-03-01T08:07:25;18.80;;;8.53;;
19869;SDS011;10097;50.862;4.696;2023-03-01T08:09:51;21.87;;;9.30;;
19869;SDS011;10097;50.862;4.696;2023-03-01T08:12:17;20.27;;;8.97;;
19869;SDS011;10097;50.862;4.696;2023-03-01T08:14:43;21.00;;;8.63;;
19869;SDS011;10097;50.862;4.696;2023-03-01T08:17:09;22.37;;;10.13;;
19869;SDS011;10097;50.862;4.696;2023-03-01T08:19:34;18.83;;;8.83;;
19869;SDS011;10097;50.862;4.696;2023-03-01T08:22:03;17.97;;;9.07;;
19869;SDS011;10097;50.862;4.696;2023-03-01T08:24:29;18.17;;;8.93;;
19869;SDS011;10097;50.862;4.696;2023-03-01T08:26:55;18.33;;;9.00;;
19869;SDS011;10097;50.862;4.696;2023-03-01T08:29:21;19.43;;;9.70;;
19869;SDS011;10097;50.862;4.696;2023-03-01T08:31:47;20.37;;;9.63;;
19869;SDS011;10097;50.862;4.696;2023-03-01T08:34:14;18.40;;;8.83;;
19869;SDS011;10097;50.862;4.696;2023-03-01T08:36:42;19.17;;;8.93;;
19869;SDS011;10097;50.862;4.696;2023-03-01T08:39:11;15.77;;;8.10;;
19869;SDS011;10097;50.862;4.696;2023-03-01T08:41:38;20.07;;;9.03;;
19869;SDS011;10097;50.862;4.696;2023-03-01T08:44:04;15.97;;;8.70;;
19869;SDS011;10097;50.862;4.696;2023-03-01T08:46:35;19.90;;;9.10;;
19869;SDS011;10097;50.862;4.696;2023-03-01T08:49:12;19.13;;;9.37;;
19869;SDS011;10097;50.862;4.696;2023-03-01T08:51:40;20.40;;;10.00;;
19869;SDS011;10097;50.862;4.696;2023-03-01T08:54:09;20.77;;;9.93;;
19869;SDS011;10097;50.862;4.696;2023-03-01T08:56:37;17.40;;;9.27;;
19869;SDS011;10097;50.862;4.696;2023-03-01T08:59:02;21.83;;;9.23;;
19869;SDS011;10097;50.862;4.696;2023-03-01T09:01:31;18.53;;;8.83;;
19869;SDS011;10097;50.862;4.696;2023-03-01T09:03:57;19.20;;;9.27;;
19869;SDS011;10097;50.862;4.696;2023-03-01T09:06:23;18.43;;;9.87;;
19869;SDS011;10097;50.862;4.696;2023-03-01T09:08:49;16.90;;;8.67;;
19869;SDS011;10097;50.862;4.696;2023-03-01T09:11:16;21.20;;;8.63;;
19869;SDS011;10097;50.862;4.696;2023-03-01T09:13:44;19.03;;;8.03;;
19869;SDS011;10097;50.862;4.696;2023-03-01T09:16:11;20.87;;;9.47;;
19869;SDS011;10097;50.862;4.696;2023-03-01T09:18:39;22.43;;;9.10;;
19869;SDS011;10097;50.862;4.696;2023-03-01T09:21:14;25.23;;;9.47;;
19869;SDS011;10097;50.862;4.696;2023-03-01T09:23:42;17.43;;;9.10;;
19869;SDS011;10097;50.862;4.696;2023-03-01T09:26:10;16.37;;;9.00;;
19869;SDS011;10097;50.862;4.696;2023-03-01T09:28:38;22.33;;;8.83;;
19869;SDS011;10097;50.862;4.696;2023-03-01T09:31:04;20.30;;;9.03;;
19869;SDS011;10097;50.862;4.696;2023-03-01T09:33:30;17.07;;;8.70;;
19869;SDS011;10097;50.862;4.696;2023-03-01T09:35:57;21.33;;;9.23;;
19869;SDS011;10097;50.862;4.696;2023-03-01T09:38:23;19.27;;;9.30;;
19869;SDS011;10097;50.862;4.696;2023-03-01T09:40:49;19.60;;;9.20;;
19869;SDS011;10097;50.862;4.696;2023-03-01T09:45:46;17.77;;;9.50;;
19869;SDS011;10097;50.862;4.696;2023-03-01T09:48:16;17.97;;;8.43;;
19869;SDS011;10097;50.862;4.696;2023-03-01T09:50:47;20.47;;;9.10;;
19869;SDS011;10097;50.862;4.696;2023-03-01T09:53:14;19.47;;;9.23;;
19869;SDS011;10097;50.862;4.696;2023-03-01T09:55:44;19.07;;;9.03;;
19869;SDS011;10097;50.862;4.696;2023-03-01T10:06:24;18.67;;;8.77;;
19869;SDS011;10097;50.862;4.696;2023-03-01T10:09:00;20.07;;;9.00;;
19869;SDS011;10097;50.862;4.696;2023-03-01T10:11:32;17.87;;;8.97;;
19869;SDS011;10097;50.862;4.696;2023-03-01T10:14:21;17.33;;;8.90;;
19869;SDS011;10097;50.862;4.696;2023-03-01T10:16:57;19.07;;;8.27;;
19869;SDS011;10097;50.862;4.696;2023-03-01T10:19:36;18.87;;;9.40;;
19869;SDS011;10097;50.862;4.696;2023-03-01T10:24:47;19.97;;;9.70;;
19869;SDS011;10097;50.862;4.696;2023-03-01T10:27:17;20.37;;;9.40;;
19869;SDS011;10097;50.862;4.696;2023-03-01T10:32:41;19.40;;;9.40;;
19869;SDS011;10097;50.862;4.696;2023-03-01T10:38:05;18.30;;;8.53;;
19869;SDS011;10097;50.862;4.696;2023-03-01T10:40:35;17.30;;;8.17;;
19869;SDS011;10097;50.862;4.696;2023-03-01T10:43:14;16.07;;;7.80;;
19869;SDS011;10097;50.862;4.696;2023-03-01T10:45:39;21.70;;;9.50;;
19869;SDS011;10097;50.862;4.696;2023-03-01T10:48:16;16.17;;;8.40;;
19869;SDS011;10097;50.862;4.696;2023-03-01T10:50:48;17.47;;;8.53;;
19869;SDS011;10097;50.862;4.696;2023-03-01T10:53:40;20.00;;;8.90;;
19869;SDS011;10097;50.862;4.696;2023-03-01T10:56:09;16.27;;;8.27;;
19869;SDS011;10097;50.862;4.696;2023-03-01T10:58:38;18.00;;;8.97;;
19869;SDS011;10097;50.862;4.696;2023-03-01T11:03:41;18.00;;;8.70;;
19869;SDS011;10097;50.862;4.696;2023-03-01T11:08:40;16.13;;;8.37;;
19869;SDS011;10097;50.862;4.696;2023-03-01T11:11:13;18.43;;;8.40;;
19869;SDS011;10097;50.862;4.696;2023-03-01T11:16:57;16.80;;;8.77;;
19869;SDS011;10097;50.862;4.696;2023-03-01T11:19:31;16.80;;;8.07;;
19869;SDS011;10097;50.862;4.696;2023-03-01T11:24:39;18.63;;;8.53;;
19869;SDS011;10097;50.862;4.696;2023-03-01T11:27:14;15.17;;;7.77;;
19869;SDS011;10097;50.862;4.696;2023-03-01T11:29:57;15.97;;;8.27;;
19869;SDS011;10097;50.862;4.696;2023-03-01T11:32:25;15.10;;;7.33;;
19869;SDS011;10097;50.862;4.696;2023-03-01T11:35:02;16.87;;;7.73;;
19869;SDS011;10097;50.862;4.696;2023-03-01T11:37:57;18.77;;;7.70;;
19869;SDS011;10097;50.862;4.696;2023-03-01T11:40:29;16.93;;;8.07;;
19869;SDS011;10097;50.862;4.696;2023-03-01T11:43:11;15.97;;;7.40;;
19869;SDS011;10097;50.862;4.696;2023-03-01T11:48:28;17.30;;;8.17;;
19869;SDS011;10097;50.862;4.696;2023-03-01T11:51:05;15.60;;;7.57;;
19869;SDS011;10097;50.862;4.696;2023-03-01T11:59:02;14.63;;;7.23;;
19869;SDS011;10097;50.862;4.696;2023-03-01T12:01:32;18.93;;;8.40;;
19869;SDS011;10097;50.862;4.696;2023-03-01T12:12:09;15.97;;;7.87;;
19869;SDS011;10097;50.862;4.696;2023-03-01T12:20:14;20.00;;;8.20;;
19869;SDS011;10097;50.862;4.696;2023-03-01T12:22:51;15.83;;;7.83;;
19869;SDS011;10097;50.862;4.696;2023-03-01T12:25:24;14.00;;;7.77;;
19869;SDS011;10097;50.862;4.696;2023-03-01T12:28:04;18.13;;;8.17;;
19869;SDS011;10097;50.862;4.696;2023-03-01T12:39:41;14.53;;;7.13;;
19869;SDS011;10097;50.862;4.696;2023-03-01T12:50:43;19.53;;;7.73;;
19869;SDS011;10097;50.862;4.696;2023-03-01T12:55:50;15.47;;;7.60;;
19869;SDS011;10097;50.862;4.696;2023-03-01T13:01:26;14.27;;;7.77;;
19869;SDS011;10097;50.862;4.696;2023-03-01T13:15:34;16.23;;;7.43;;
19869;SDS011;10097;50.862;4.696;2023-03-01T13:46:44;14.07;;;7.30;;
19869;SDS011;10097;50.862;4.696;2023-03-01T13:49:14;14.27;;;7.20;;
19869;SDS011;10097;50.862;4.696;2023-03-01T13:51:46;13.93;;;7.53;;
19869;SDS011;10097;50.862;4.696;2023-03-01T13:54:17;18.43;;;8.93;;
19869;SDS011;10097;50.862;4.696;2023-03-01T13:56:56;14.47;;;7.37;;
19869;SDS011;10097;50.862;4.696;2023-03-01T13:59:23;13.70;;;7.13;;
19869;SDS011;10097;50.862;4.696;2023-03-01T14:01:58;14.23;;;6.80;;
19869;SDS011;10097;50.862;4.696;2023-03-01T14:04:30;13.67;;;6.47;;
19869;SDS011;10097;50.862;4.696;2023-03-01T14:09:53;19.90;;;7.63;;
19869;SDS011;10097;50.862;4.696;2023-03-01T14:12:24;14.47;;;6.87;;
19869;SDS011;10097;50.862;4.696;2023-03-01T14:18:03;15.60;;;7.67;;
19869;SDS011;10097;50.862;4.696;2023-03-01T14:20:39;15.13;;;7.13;;
19869;SDS011;10097;50.862;4.696;2023-03-01T14:23:17;14.90;;;7.30;;
19869;SDS011;10097;50.862;4.696;2023-03-01T14:25:49;18.10;;;7.80;;
19869;SDS011;10097;50.862;4.696;2023-03-01T14:28:18;14.40;;;6.83;;
19869;SDS011;10097;50.862;4.696;2023-03-01T14:30:56;15.43;;;7.60;;
19869;SDS011;10097;50.862;4.696;2023-03-01T14:35:54;13.73;;;6.63;;
19869;SDS011;10097;50.862;4.696;2023-03-01T14:38:38;14.57;;;6.50;;
19869;SDS011;10097;50.862;4.696;2023-03-01T14:41:18;13.80;;;6.57;;
19869;SDS011;10097;50.862;4.696;2023-03-01T14:43:51;13.37;;;6.63;;
19869;SDS011;10097;50.862;4.696;2023-03-01T14:46:24;13.13;;;6.37;;
19869;SDS011;10097;50.862;4.696;2023-03-01T14:48:51;13.67;;;7.07;;
19869;SDS011;10097;50.862;4.696;2023-03-01T14:51:19;11.83;;;5.47;;
19869;SDS011;10097;50.862;4.696;2023-03-01T14:53:45;11.97;;;6.20;;
19869;SDS011;10097;50.862;4.696;2023-03-01T14:56:12;15.07;;;6.50;;
19869;SDS011;10097;50.862;4.696;2023-03-01T14:58:39;14.90;;;7.20;;
19869;SDS011;10097;50.862;4.696;2023-03-01T15:01:05;12.93;;;6.10;;
19869;SDS011;10097;50.862;4.696;2023-03-01T15:03:51;12.60;;;6.10;;
19869;SDS011;10097;50.862;4.696;2023-03-01T15:06:18;13.07;;;6.37;;
19869;SDS011;10097;50.862;4.696;2023-03-01T15:08:47;13.13;;;6.10;;
19869;SDS011;10097;50.862;4.696;2023-03-01T15:11:21;13.03;;;6.30;;
19869;SDS011;10097;50.862;4.696;2023-03-01T15:13:57;11.60;;;5.57;;
19869;SDS011;10097;50.862;4.696;2023-03-01T15:16:24;12.53;;;6.03;;
19869;SDS011;10097;50.862;4.696;2023-03-01T15:18:59;12.40;;;6.33;;
19869;SDS011;10097;50.862;4.696;2023-03-01T15:21:29;13.67;;;6.17;;
19869;SDS011;10097;50.862;4.696;2023-03-01T15:29:23;16.27;;;6.10;;
19869;SDS011;10097;50.862;4.696;2023-03-01T15:31:56;13.67;;;6.47;;
19869;SDS011;10097;50.862;4.696;2023-03-01T15:34:37;14.60;;;6.63;;
19869;SDS011;10097;50.862;4.696;2023-03-01T15:37:04;15.63;;;5.93;;
19869;SDS011;10097;50.862;4.696;2023-03-01T15:39:55;15.10;;;6.43;;
19869;SDS011;10097;50.862;4.696;2023-03-01T15:48:04;15.90;;;6.13;;
19869;SDS011;10097;50.862;4.696;2023-03-01T15:50:42;15.40;;;6.37;;
19869;SDS011;10097;50.862;4.696;2023-03-01T15:53:13;14.57;;;6.10;;
19869;SDS011;10097;50.862;4.696;2023-03-01T15:55:39;13.37;;;6.53;;
19869;SDS011;10097;50.862;4.696;2023-03-01T15:58:08;12.07;;;5.97;;
19869;SDS011;10097;50.862;4.696;2023-03-01T16:00:38;19.50;;;6.07;;
19869;SDS011;10097;50.862;4.696;2023-03-01T16:03:04;14.13;;;6.63;;
19869;SDS011;10097;50.862;4.696;2023-03-01T16:05:32;17.73;;;6.97;;
19869;SDS011;10097;50.862;4.696;2023-03-01T16:07:59;12.33;;;6.27;;
19869;SDS011;10097;50.862;4.696;2023-03-01T16:10:26;15.30;;;6.77;;
19869;SDS011;10097;50.862;4.696;2023-03-01T16:12:52;15.03;;;5.77;;
19869;SDS011;10097;50.862;4.696;2023-03-01T16:15:21;14.80;;;5.80;;
19869;SDS011;10097;50.862;4.696;2023-03-01T16:17:52;14.77;;;6.30;;
19869;SDS011;10097;50.862;4.696;2023-03-01T16:20:18;13.83;;;5.87;;
19869;SDS011;10097;50.862;4.696;2023-03-01T16:22:44;12.70;;;5.80;;
19869;SDS011;10097;50.862;4.696;2023-03-01T16:25:11;14.23;;;5.90;;
19869;SDS011;10097;50.862;4.696;2023-03-01T16:27:41;10.90;;;5.43;;
19869;SDS011;10097;50.862;4.696;2023-03-01T16:30:08;15.63;;;5.93;;
19869;SDS011;10097;50.862;4.696;2023-03-01T16:32:38;14.03;;;5.40;;
19869;SDS011;10097;50.862;4.696;2023-03-01T16:35:05;14.07;;;5.70;;
19869;SDS011;10097;50.862;4.696;2023-03-01T16:37:33;12.50;;;5.43;;
19869;SDS011;10097;50.862;4.696;2023-03-01T16:39:59;12.43;;;5.60;;
19869;SDS011;10097;50.862;4.696;2023-03-01T16:42:25;12.13;;;6.00;;
19869;SDS011;10097;50.862;4.696;2023-03-01T16:44:54;17.37;;;6.60;;
19869;SDS011;10097;50.862;4.696;2023-03-01T16:47:21;54.90;;;18.40;;
19869;SDS011;10097;50.862;4.696;2023-03-01T16:49:51;15.57;;;6.97;;
19869;SDS011;10097;50.862;4.696;2023-03-01T16:52:17;11.93;;;6.23;;
19869;SDS011;10097;50.862;4.696;2023-03-01T16:54:43;16.50;;;6.00;;
19869;SDS011;10097;50.862;4.696;2023-03-01T16:57:09;14.37;;;5.73;;
19869;SDS011;10097;50.862;4.696;2023-03-01T16:59:34;14.00;;;6.20;;
19869;SDS011;10097;50.862;4.696;2023-03-01T17:02:01;11.90;;;5.70;;